sensor_id;sensor_type;location;lat;lon;timestamp;P1;durP1;ratioP1;P2;durP2;ratioP2
78854;SDS011;68206;59.956;30.234;2023-04-06T00:02:20;7.93;;;3.83;;
78854;SDS011;68206;59.956;30.234;2023-04-06T00:04:49;8.45;;;4.53;;
78854;SDS011;68206;59.956;30.234;2023-04-06T00:07:16;7.85;;;3.78;;
78854;SDS011;68206;59.956;30.234;2023-04-06T00:09:45;8.23;;;4.53;;
78854;SDS011;68206;59.956;30.234;2023-04-06T00:12:15;11.20;;;4.90;;
78854;SDS011;68206;59.956;30.234;2023-04-06T00:14:43;7.05;;;3.78;;
78854;SDS011;68206;59.956;30.234;2023-04-06T00:17:11;7.50;;;3.60;;
78854;SDS011;68206;59.956;30.234;2023-04-06T00:19:39;10.68;;;4.65;;
78854;SDS011;68206;59.956;30.234;2023-04-06T00:22:07;9.73;;;5.25;;
78854;SDS011;68206;59.956;30.234;2023-04-06T00:24:36;8.15;;;4.30;;
78854;SDS011;68206;59.956;30.234;2023-04-06T00:27:04;9.32;;;4.63;;
78854;SDS011;68206;59.956;30.234;2023-04-06T00:29:33;8.05;;;4.22;;
78854;SDS011;68206;59.956;30.234;2023-04-06T00:32:02;7.35;;;3.33;;
78854;SDS011;68206;59.956;30.234;2023-04-06T00:34:30;5.70;;;3.08;;
78854;SDS011;68206;59.956;30.234;2023-04-06T00:36:59;7.95;;;3.67;;
78854;SDS011;68206;59.956;30.234;2023-04-06T00:39:27;9.63;;;5.13;;
78854;SDS011;68206;59.956;30.234;2023-04-06T00:41:55;6.82;;;3.63;;
78854;SDS011;68206;59.956;30.234;2023-04-06T00:44:24;6.95;;;4.15;;
78854;SDS011;68206;59.956;30.234;2023-04-06T00:46:53;9.30;;;4.05;;
78854;SDS011;68206;59.956;30.234;2023-04-06T00:49:22;6.63;;;3.60;;
78854;SDS011;68206;59.956;30.234;2023-04-06T00:51:50;8.45;;;4.32;;
78854;SDS011;68206;59.956;30.234;2023-04-06T00:54:18;7.28;;;3.65;;
78854;SDS011;68206;59.956;30.234;2023-04-06T00:56:46;9.35;;;3.83;;
78854;SDS011;68206;59.956;30.234;2023-04-06T00:59:15;6.43;;;3.40;;
78854;SDS011;68206;59.956;30.234;2023-04-06T01:01:43;9.77;;;4.70;;
78854;SDS011;68206;59.956;30.234;2023-04-06T01:04:30;7.88;;;4.20;;
78854;SDS011;68206;59.956;30.234;2023-04-06T01:07:00;6.82;;;3.70;;
78854;SDS011;68206;59.956;30.234;2023-04-06T01:09:37;10.95;;;4.90;;
78854;SDS011;68206;59.956;30.234;2023-04-06T01:12:15;8.15;;;4.55;;
78854;SDS011;68206;59.956;30.234;2023-04-06T01:14:44;8.15;;;4.40;;
78854;SDS011;68206;59.956;30.234;2023-04-06T01:17:15;9.05;;;4.60;;
78854;SDS011;68206;59.956;30.234;2023-04-06T01:19:45;10.57;;;4.80;;
78854;SDS011;68206;59.956;30.234;2023-04-06T01:22:23;10.02;;;5.00;;
78854;SDS011;68206;59.956;30.234;2023-04-06T01:24:58;9.65;;;5.00;;
78854;SDS011;68206;59.956;30.234;2023-04-06T01:27:37;7.72;;;3.85;;
78854;SDS011;68206;59.956;30.234;2023-04-06T01:30:11;11.93;;;6.43;;
78854;SDS011;68206;59.956;30.234;2023-04-06T01:32:46;8.88;;;4.13;;
78854;SDS011;68206;59.956;30.234;2023-04-06T01:35:19;11.40;;;4.85;;
78854;SDS011;68206;59.956;30.234;2023-04-06T01:37:59;10.23;;;4.45;;
78854;SDS011;68206;59.956;30.234;2023-04-06T01:40:34;9.50;;;4.63;;
78854;SDS011;68206;59.956;30.234;2023-04-06T01:43:02;10.13;;;4.43;;
78854;SDS011;68206;59.956;30.234;2023-04-06T01:45:36;10.70;;;4.55;;
78854;SDS011;68206;59.956;30.234;2023-04-06T01:48:14;8.80;;;4.18;;
78854;SDS011;68206;59.956;30.234;2023-04-06T01:50:42;9.32;;;5.70;;
78854;SDS011;68206;59.956;30.234;2023-04-06T01:53:16;13.02;;;5.70;;
78854;SDS011;68206;59.956;30.234;2023-04-06T01:55:45;8.50;;;4.00;;
78854;SDS011;68206;59.956;30.234;2023-04-06T01:58:24;10.73;;;5.05;;
78854;SDS011;68206;59.956;30.234;2023-04-06T02:00:52;9.70;;;5.45;;
78854;SDS011;68206;59.956;30.234;2023-04-06T02:03:21;7.40;;;4.32;;
78854;SDS011;68206;59.956;30.234;2023-04-06T02:05:57;11.05;;;4.35;;
78854;SDS011;68206;59.956;30.234;2023-04-06T02:08:33;12.52;;;5.47;;
78854;SDS011;68206;59.956;30.234;2023-04-06T02:11:01;10.68;;;5.32;;
78854;SDS011;68206;59.956;30.234;2023-04-06T02:13:36;9.55;;;5.75;;
78854;SDS011;68206;59.956;30.234;2023-04-06T02:16:05;10.07;;;5.90;;
78854;SDS011;68206;59.956;30.234;2023-04-06T02:18:33;11.32;;;5.05;;
78854;SDS011;68206;59.956;30.234;2023-04-06T02:21:01;10.98;;;5.28;;
78854;SDS011;68206;59.956;30.234;2023-04-06T02:23:29;11.75;;;6.25;;
78854;SDS011;68206;59.956;30.234;2023-04-06T02:25:59;12.80;;;6.18;;
78854;SDS011;68206;59.956;30.234;2023-04-06T02:28:27;10.73;;;5.97;;
78854;SDS011;68206;59.956;30.234;2023-04-06T02:30:55;7.93;;;4.22;;
78854;SDS011;68206;59.956;30.234;2023-04-06T02:33:26;15.05;;;5.55;;
78854;SDS011;68206;59.956;30.234;2023-04-06T02:35:54;9.30;;;5.28;;
78854;SDS011;68206;59.956;30.234;2023-04-06T02:38:22;10.13;;;5.72;;
78854;SDS011;68206;59.956;30.234;2023-04-06T02:40:51;13.57;;;7.05;;
78854;SDS011;68206;59.956;30.234;2023-04-06T02:43:24;10.20;;;4.95;;
78854;SDS011;68206;59.956;30.234;2023-04-06T02:46:03;11.93;;;5.68;;
78854;SDS011;68206;59.956;30.234;2023-04-06T02:48:36;11.88;;;5.50;;
78854;SDS011;68206;59.956;30.234;2023-04-06T02:51:04;11.52;;;6.05;;
78854;SDS011;68206;59.956;30.234;2023-04-06T02:53:33;8.27;;;5.05;;
78854;SDS011;68206;59.956;30.234;2023-04-06T02:56:02;10.45;;;5.63;;
78854;SDS011;68206;59.956;30.234;2023-04-06T02:58:43;10.50;;;4.68;;
78854;SDS011;68206;59.956;30.234;2023-04-06T03:01:12;13.05;;;5.00;;
78854;SDS011;68206;59.956;30.234;2023-04-06T03:03:41;8.60;;;4.43;;
78854;SDS011;68206;59.956;30.234;2023-04-06T03:06:17;8.32;;;4.93;;
78854;SDS011;68206;59.956;30.234;2023-04-06T03:08:48;9.77;;;5.47;;
78854;SDS011;68206;59.956;30.234;2023-04-06T03:11:17;11.10;;;4.82;;
78854;SDS011;68206;59.956;30.234;2023-04-06T03:13:47;7.50;;;4.57;;
78854;SDS011;68206;59.956;30.234;2023-04-06T03:16:15;9.00;;;5.15;;
78854;SDS011;68206;59.956;30.234;2023-04-06T03:18:44;8.05;;;4.38;;
78854;SDS011;68206;59.956;30.234;2023-04-06T03:21:13;7.68;;;4.30;;
78854;SDS011;68206;59.956;30.234;2023-04-06T03:23:48;8.52;;;4.53;;
78854;SDS011;68206;59.956;30.234;2023-04-06T03:26:17;10.93;;;5.57;;
78854;SDS011;68206;59.956;30.234;2023-04-06T03:28:46;10.23;;;5.60;;
78854;SDS011;68206;59.956;30.234;2023-04-06T03:31:15;9.68;;;4.28;;
78854;SDS011;68206;59.956;30.234;2023-04-06T03:34:04;8.68;;;4.93;;
78854;SDS011;68206;59.956;30.234;2023-04-06T03:36:34;11.50;;;5.57;;
78854;SDS011;68206;59.956;30.234;2023-04-06T03:39:03;10.18;;;5.25;;
78854;SDS011;68206;59.956;30.234;2023-04-06T03:41:35;8.82;;;4.65;;
78854;SDS011;68206;59.956;30.234;2023-04-06T03:44:30;9.70;;;5.25;;
78854;SDS011;68206;59.956;30.234;2023-04-06T03:46:58;8.77;;;4.82;;
78854;SDS011;68206;59.956;30.234;2023-04-06T03:49:27;11.75;;;5.43;;
78854;SDS011;68206;59.956;30.234;2023-04-06T03:51:56;7.65;;;5.03;;
78854;SDS011;68206;59.956;30.234;2023-04-06T03:54:24;11.57;;;6.32;;
78854;SDS011;68206;59.956;30.234;2023-04-06T03:56:53;11.18;;;5.82;;
78854;SDS011;68206;59.956;30.234;2023-04-06T03:59:24;8.68;;;4.72;;
78854;SDS011;68206;59.956;30.234;2023-04-06T04:01:54;10.98;;;4.28;;
78854;SDS011;68206;59.956;30.234;2023-04-06T04:04:23;9.32;;;4.45;;
78854;SDS011;68206;59.956;30.234;2023-04-06T04:06:51;41.58;;;6.10;;
78854;SDS011;68206;59.956;30.234;2023-04-06T04:09:19;7.13;;;4.15;;
78854;SDS011;68206;59.956;30.234;2023-04-06T04:11:49;9.55;;;4.38;;
78854;SDS011;68206;59.956;30.234;2023-04-06T04:14:18;8.32;;;4.00;;
78854;SDS011;68206;59.956;30.234;2023-04-06T04:16:46;15.55;;;6.28;;
78854;SDS011;68206;59.956;30.234;2023-04-06T04:19:16;9.77;;;5.80;;
78854;SDS011;68206;59.956;30.234;2023-04-06T04:21:44;10.18;;;5.05;;
78854;SDS011;68206;59.956;30.234;2023-04-06T04:24:18;14.40;;;5.53;;
78854;SDS011;68206;59.956;30.234;2023-04-06T04:26:47;9.68;;;5.07;;
78854;SDS011;68206;59.956;30.234;2023-04-06T04:29:15;13.82;;;7.28;;
78854;SDS011;68206;59.956;30.234;2023-04-06T04:31:46;10.60;;;5.43;;
78854;SDS011;68206;59.956;30.234;2023-04-06T04:34:18;11.45;;;5.50;;
78854;SDS011;68206;59.956;30.234;2023-04-06T04:36:49;10.73;;;4.68;;
78854;SDS011;68206;59.956;30.234;2023-04-06T04:39:24;8.45;;;4.70;;
78854;SDS011;68206;59.956;30.234;2023-04-06T04:42:00;7.07;;;3.95;;
78854;SDS011;68206;59.956;30.234;2023-04-06T04:44:30;8.52;;;4.35;;
78854;SDS011;68206;59.956;30.234;2023-04-06T04:47:00;12.93;;;6.45;;
78854;SDS011;68206;59.956;30.234;2023-04-06T04:49:40;8.90;;;4.57;;
78854;SDS011;68206;59.956;30.234;2023-04-06T04:52:09;9.57;;;4.40;;
78854;SDS011;68206;59.956;30.234;2023-04-06T04:54:49;9.80;;;5.60;;
78854;SDS011;68206;59.956;30.234;2023-04-06T04:57:23;10.63;;;4.65;;
78854;SDS011;68206;59.956;30.234;2023-04-06T04:59:52;11.82;;;6.07;;
78854;SDS011;68206;59.956;30.234;2023-04-06T05:02:23;13.32;;;7.40;;
78854;SDS011;68206;59.956;30.234;2023-04-06T05:05:04;10.13;;;4.97;;
78854;SDS011;68206;59.956;30.234;2023-04-06T05:07:33;18.13;;;7.53;;
78854;SDS011;68206;59.956;30.234;2023-04-06T05:10:01;15.90;;;8.18;;
78854;SDS011;68206;59.956;30.234;2023-04-06T05:12:38;15.85;;;7.20;;
78854;SDS011;68206;59.956;30.234;2023-04-06T05:15:10;14.40;;;6.65;;
78854;SDS011;68206;59.956;30.234;2023-04-06T05:17:38;14.90;;;7.82;;
78854;SDS011;68206;59.956;30.234;2023-04-06T05:20:10;13.35;;;6.43;;
78854;SDS011;68206;59.956;30.234;2023-04-06T05:22:45;18.42;;;7.40;;
78854;SDS011;68206;59.956;30.234;2023-04-06T05:25:14;15.43;;;6.03;;
78854;SDS011;68206;59.956;30.234;2023-04-06T05:27:44;14.77;;;7.00;;
78854;SDS011;68206;59.956;30.234;2023-04-06T05:30:25;8.80;;;5.55;;
78854;SDS011;68206;59.956;30.234;2023-04-06T05:32:54;17.33;;;7.75;;
78854;SDS011;68206;59.956;30.234;2023-04-06T05:35:27;15.38;;;8.32;;
78854;SDS011;68206;59.956;30.234;2023-04-06T05:38:00;15.20;;;6.95;;
78854;SDS011;68206;59.956;30.234;2023-04-06T05:40:29;16.23;;;7.85;;
78854;SDS011;68206;59.956;30.234;2023-04-06T05:42:58;14.90;;;6.82;;
78854;SDS011;68206;59.956;30.234;2023-04-06T05:45:27;12.68;;;6.35;;
78854;SDS011;68206;59.956;30.234;2023-04-06T05:47:57;12.23;;;5.82;;
78854;SDS011;68206;59.956;30.234;2023-04-06T05:50:29;12.50;;;6.28;;
78854;SDS011;68206;59.956;30.234;2023-04-06T05:52:58;9.40;;;5.60;;
78854;SDS011;68206;59.956;30.234;2023-04-06T05:55:33;13.98;;;7.10;;
78854;SDS011;68206;59.956;30.234;2023-04-06T05:58:15;13.10;;;5.90;;
78854;SDS011;68206;59.956;30.234;2023-04-06T06:00:46;11.38;;;5.50;;
78854;SDS011;68206;59.956;30.234;2023-04-06T06:03:16;11.80;;;5.90;;
78854;SDS011;68206;59.956;30.234;2023-04-06T06:05:51;13.80;;;6.72;;
78854;SDS011;68206;59.956;30.234;2023-04-06T06:08:27;11.65;;;6.18;;
78854;SDS011;68206;59.956;30.234;2023-04-06T06:10:57;11.80;;;5.47;;
78854;SDS011;68206;59.956;30.234;2023-04-06T06:13:25;13.23;;;6.40;;
78854;SDS011;68206;59.956;30.234;2023-04-06T06:15:55;13.27;;;5.85;;
78854;SDS011;68206;59.956;30.234;2023-04-06T06:18:24;13.27;;;6.07;;
78854;SDS011;68206;59.956;30.234;2023-04-06T06:20:55;15.52;;;7.88;;
78854;SDS011;68206;59.956;30.234;2023-04-06T06:23:24;13.68;;;6.53;;
78854;SDS011;68206;59.956;30.234;2023-04-06T06:25:53;12.48;;;6.25;;
78854;SDS011;68206;59.956;30.234;2023-04-06T06:28:23;12.90;;;6.22;;
78854;SDS011;68206;59.956;30.234;2023-04-06T06:30:53;13.65;;;6.50;;
78854;SDS011;68206;59.956;30.234;2023-04-06T06:33:23;15.35;;;7.60;;
78854;SDS011;68206;59.956;30.234;2023-04-06T06:35:55;16.75;;;8.68;;
78854;SDS011;68206;59.956;30.234;2023-04-06T06:38:24;19.05;;;9.57;;
78854;SDS011;68206;59.956;30.234;2023-04-06T06:40:53;13.82;;;7.65;;
78854;SDS011;68206;59.956;30.234;2023-04-06T06:43:24;14.23;;;7.00;;
78854;SDS011;68206;59.956;30.234;2023-04-06T06:46:02;13.55;;;7.50;;
78854;SDS011;68206;59.956;30.234;2023-04-06T06:48:30;13.85;;;7.03;;
78854;SDS011;68206;59.956;30.234;2023-04-06T06:51:00;17.08;;;7.82;;
78854;SDS011;68206;59.956;30.234;2023-04-06T06:53:28;16.73;;;8.68;;
78854;SDS011;68206;59.956;30.234;2023-04-06T06:55:56;20.58;;;9.15;;
78854;SDS011;68206;59.956;30.234;2023-04-06T06:58:25;19.63;;;9.32;;
78854;SDS011;68206;59.956;30.234;2023-04-06T07:00:55;23.05;;;10.68;;
78854;SDS011;68206;59.956;30.234;2023-04-06T07:03:24;24.77;;;11.95;;
78854;SDS011;68206;59.956;30.234;2023-04-06T07:05:53;28.58;;;12.77;;
78854;SDS011;68206;59.956;30.234;2023-04-06T07:08:24;35.78;;;15.30;;
78854;SDS011;68206;59.956;30.234;2023-04-06T07:10:52;37.95;;;14.88;;
78854;SDS011;68206;59.956;30.234;2023-04-06T07:13:23;34.60;;;15.10;;
78854;SDS011;68206;59.956;30.234;2023-04-06T07:15:55;29.98;;;11.45;;
78854;SDS011;68206;59.956;30.234;2023-04-06T07:18:24;35.50;;;16.35;;
78854;SDS011;68206;59.956;30.234;2023-04-06T07:20:53;24.50;;;9.50;;
78854;SDS011;68206;59.956;30.234;2023-04-06T07:23:22;40.47;;;16.25;;
78854;SDS011;68206;59.956;30.234;2023-04-06T07:25:52;20.90;;;9.02;;
78854;SDS011;68206;59.956;30.234;2023-04-06T07:28:22;31.30;;;14.48;;
78854;SDS011;68206;59.956;30.234;2023-04-06T07:30:50;22.60;;;10.02;;
78854;SDS011;68206;59.956;30.234;2023-04-06T07:33:20;26.90;;;11.57;;
78854;SDS011;68206;59.956;30.234;2023-04-06T07:35:49;25.17;;;10.60;;
78854;SDS011;68206;59.956;30.234;2023-04-06T07:38:19;23.73;;;10.60;;
78854;SDS011;68206;59.956;30.234;2023-04-06T07:40:47;26.23;;;12.73;;
78854;SDS011;68206;59.956;30.234;2023-04-06T07:43:17;27.17;;;11.32;;
78854;SDS011;68206;59.956;30.234;2023-04-06T07:45:45;31.75;;;14.52;;
78854;SDS011;68206;59.956;30.234;2023-04-06T07:48:15;28.13;;;11.55;;
78854;SDS011;68206;59.956;30.234;2023-04-06T07:50:44;22.25;;;9.63;;
78854;SDS011;68206;59.956;30.234;2023-04-06T07:53:13;25.23;;;12.07;;
78854;SDS011;68206;59.956;30.234;2023-04-06T07:55:43;29.73;;;12.50;;
78854;SDS011;68206;59.956;30.234;2023-04-06T07:58:11;34.53;;;13.48;;
78854;SDS011;68206;59.956;30.234;2023-04-06T08:00:41;41.03;;;17.45;;
78854;SDS011;68206;59.956;30.234;2023-04-06T08:03:10;33.45;;;14.13;;
78854;SDS011;68206;59.956;30.234;2023-04-06T08:05:38;39.30;;;15.90;;
78854;SDS011;68206;59.956;30.234;2023-04-06T08:08:06;35.95;;;16.17;;
78854;SDS011;68206;59.956;30.234;2023-04-06T08:10:34;33.63;;;12.90;;
78854;SDS011;68206;59.956;30.234;2023-04-06T08:13:03;26.00;;;11.57;;
78854;SDS011;68206;59.956;30.234;2023-04-06T08:15:31;30.60;;;12.50;;
78854;SDS011;68206;59.956;30.234;2023-04-06T08:18:01;31.80;;;11.52;;
78854;SDS011;68206;59.956;30.234;2023-04-06T08:20:29;30.35;;;13.68;;
78854;SDS011;68206;59.956;30.234;2023-04-06T08:22:57;26.45;;;10.90;;
78854;SDS011;68206;59.956;30.234;2023-04-06T08:25:26;27.58;;;11.68;;
78854;SDS011;68206;59.956;30.234;2023-04-06T08:27:54;24.45;;;10.88;;
78854;SDS011;68206;59.956;30.234;2023-04-06T08:30:22;24.08;;;10.57;;
78854;SDS011;68206;59.956;30.234;2023-04-06T08:32:50;24.38;;;9.98;;
78854;SDS011;68206;59.956;30.234;2023-04-06T08:35:20;25.15;;;9.85;;
78854;SDS011;68206;59.956;30.234;2023-04-06T08:37:48;22.13;;;10.80;;
78854;SDS011;68206;59.956;30.234;2023-04-06T08:40:16;23.20;;;12.07;;
78854;SDS011;68206;59.956;30.234;2023-04-06T08:42:48;30.90;;;14.25;;
78854;SDS011;68206;59.956;30.234;2023-04-06T08:45:18;37.63;;;15.18;;
78854;SDS011;68206;59.956;30.234;2023-04-06T08:47:48;26.88;;;12.82;;
78854;SDS011;68206;59.956;30.234;2023-04-06T08:50:20;21.88;;;9.15;;
78854;SDS011;68206;59.956;30.234;2023-04-06T08:52:49;20.77;;;9.57;;
78854;SDS011;68206;59.956;30.234;2023-04-06T08:55:17;24.13;;;10.50;;
78854;SDS011;68206;59.956;30.234;2023-04-06T08:57:46;23.65;;;10.23;;
78854;SDS011;68206;59.956;30.234;2023-04-06T09:00:14;24.65;;;10.88;;
78854;SDS011;68206;59.956;30.234;2023-04-06T09:02:47;22.67;;;8.73;;
78854;SDS011;68206;59.956;30.234;2023-04-06T09:05:17;25.02;;;10.68;;
78854;SDS011;68206;59.956;30.234;2023-04-06T09:07:47;30.10;;;13.20;;
78854;SDS011;68206;59.956;30.234;2023-04-06T09:10:15;28.15;;;10.88;;
78854;SDS011;68206;59.956;30.234;2023-04-06T09:12:45;28.30;;;11.52;;
78854;SDS011;68206;59.956;30.234;2023-04-06T09:15:19;25.15;;;10.45;;
78854;SDS011;68206;59.956;30.234;2023-04-06T09:17:50;30.63;;;12.98;;
78854;SDS011;68206;59.956;30.234;2023-04-06T09:20:22;21.92;;;10.57;;
78854;SDS011;68206;59.956;30.234;2023-04-06T09:22:54;26.88;;;10.52;;
78854;SDS011;68206;59.956;30.234;2023-04-06T09:25:23;25.05;;;9.40;;
78854;SDS011;68206;59.956;30.234;2023-04-06T09:28:00;27.60;;;12.15;;
78854;SDS011;68206;59.956;30.234;2023-04-06T09:30:30;25.02;;;8.80;;
78854;SDS011;68206;59.956;30.234;2023-04-06T09:32:58;21.17;;;10.52;;
78854;SDS011;68206;59.956;30.234;2023-04-06T09:35:27;18.23;;;9.65;;
78854;SDS011;68206;59.956;30.234;2023-04-06T09:37:58;24.98;;;11.05;;
78854;SDS011;68206;59.956;30.234;2023-04-06T09:40:26;23.55;;;10.60;;
78854;SDS011;68206;59.956;30.234;2023-04-06T09:42:55;24.38;;;9.93;;
78854;SDS011;68206;59.956;30.234;2023-04-06T09:45:26;24.98;;;10.32;;
78854;SDS011;68206;59.956;30.234;2023-04-06T09:47:57;24.38;;;11.18;;
78854;SDS011;68206;59.956;30.234;2023-04-06T09:50:25;27.33;;;9.98;;
78854;SDS011;68206;59.956;30.234;2023-04-06T09:52:55;18.50;;;9.55;;
78854;SDS011;68206;59.956;30.234;2023-04-06T09:55:28;25.73;;;11.90;;
78854;SDS011;68206;59.956;30.234;2023-04-06T09:58:01;23.48;;;9.35;;
78854;SDS011;68206;59.956;30.234;2023-04-06T10:00:34;27.05;;;11.32;;
78854;SDS011;68206;59.956;30.234;2023-04-06T10:03:14;19.23;;;9.20;;
78854;SDS011;68206;59.956;30.234;2023-04-06T10:05:50;20.58;;;9.73;;
78854;SDS011;68206;59.956;30.234;2023-04-06T10:08:25;17.90;;;9.45;;
78854;SDS011;68206;59.956;30.234;2023-04-06T10:11:00;18.00;;;8.95;;
78854;SDS011;68206;59.956;30.234;2023-04-06T10:13:29;21.90;;;10.73;;
78854;SDS011;68206;59.956;30.234;2023-04-06T10:15:57;13.95;;;7.65;;
78854;SDS011;68206;59.956;30.234;2023-04-06T10:18:29;21.00;;;8.82;;
78854;SDS011;68206;59.956;30.234;2023-04-06T10:21:00;17.42;;;8.07;;
78854;SDS011;68206;59.956;30.234;2023-04-06T10:23:32;20.80;;;8.23;;
78854;SDS011;68206;59.956;30.234;2023-04-06T10:26:04;19.83;;;8.88;;
78854;SDS011;68206;59.956;30.234;2023-04-06T10:28:34;15.73;;;7.22;;
78854;SDS011;68206;59.956;30.234;2023-04-06T10:31:04;14.50;;;6.68;;
78854;SDS011;68206;59.956;30.234;2023-04-06T10:33:33;21.55;;;10.52;;
78854;SDS011;68206;59.956;30.234;2023-04-06T10:36:11;15.73;;;7.47;;
78854;SDS011;68206;59.956;30.234;2023-04-06T10:38:40;16.50;;;7.07;;
78854;SDS011;68206;59.956;30.234;2023-04-06T10:41:11;18.40;;;7.30;;
78854;SDS011;68206;59.956;30.234;2023-04-06T10:43:40;18.23;;;7.57;;
78854;SDS011;68206;59.956;30.234;2023-04-06T10:46:10;16.42;;;8.27;;
78854;SDS011;68206;59.956;30.234;2023-04-06T10:48:39;14.13;;;6.47;;
78854;SDS011;68206;59.956;30.234;2023-04-06T10:51:11;17.73;;;7.68;;
78854;SDS011;68206;59.956;30.234;2023-04-06T10:53:41;23.92;;;8.48;;
78854;SDS011;68206;59.956;30.234;2023-04-06T10:56:12;13.95;;;6.25;;
78854;SDS011;68206;59.956;30.234;2023-04-06T10:58:45;20.50;;;8.23;;
78854;SDS011;68206;59.956;30.234;2023-04-06T11:01:15;14.98;;;8.10;;
78854;SDS011;68206;59.956;30.234;2023-04-06T11:03:44;19.58;;;7.97;;
78854;SDS011;68206;59.956;30.234;2023-04-06T11:06:19;19.75;;;7.82;;
78854;SDS011;68206;59.956;30.234;2023-04-06T11:08:48;15.43;;;7.07;;
78854;SDS011;68206;59.956;30.234;2023-04-06T11:11:18;21.25;;;8.02;;
78854;SDS011;68206;59.956;30.234;2023-04-06T11:13:49;20.40;;;8.60;;
78854;SDS011;68206;59.956;30.234;2023-04-06T11:16:19;21.55;;;8.60;;
78854;SDS011;68206;59.956;30.234;2023-04-06T11:18:49;18.98;;;8.05;;
78854;SDS011;68206;59.956;30.234;2023-04-06T12:20:04;14.40;;;7.07;;
78854;SDS011;68206;59.956;30.234;2023-04-06T12:22:51;14.27;;;5.50;;
78854;SDS011;68206;59.956;30.234;2023-04-06T12:25:19;13.90;;;5.97;;
78854;SDS011;68206;59.956;30.234;2023-04-06T12:27:47;22.98;;;6.20;;
78854;SDS011;68206;59.956;30.234;2023-04-06T12:30:15;11.52;;;4.53;;
78854;SDS011;68206;59.956;30.234;2023-04-06T12:32:43;14.88;;;5.38;;
78854;SDS011;68206;59.956;30.234;2023-04-06T12:35:17;13.77;;;6.03;;
78854;SDS011;68206;59.956;30.234;2023-04-06T12:37:45;15.05;;;4.68;;
78854;SDS011;68206;59.956;30.234;2023-04-06T12:40:13;11.15;;;4.30;;
78854;SDS011;68206;59.956;30.234;2023-04-06T12:42:42;17.65;;;4.65;;
78854;SDS011;68206;59.956;30.234;2023-04-06T12:45:10;19.15;;;4.60;;
78854;SDS011;68206;59.956;30.234;2023-04-06T12:47:38;10.65;;;3.50;;
78854;SDS011;68206;59.956;30.234;2023-04-06T12:50:07;10.43;;;3.75;;
78854;SDS011;68206;59.956;30.234;2023-04-06T12:52:37;10.23;;;4.20;;
78854;SDS011;68206;59.956;30.234;2023-04-06T12:55:05;14.18;;;5.40;;
78854;SDS011;68206;59.956;30.234;2023-04-06T12:57:34;7.70;;;3.63;;
78854;SDS011;68206;59.956;30.234;2023-04-06T13:00:04;13.40;;;3.38;;
78854;SDS011;68206;59.956;30.234;2023-04-06T13:02:35;9.77;;;3.10;;
78854;SDS011;68206;59.956;30.234;2023-04-06T13:05:03;10.20;;;2.90;;
78854;SDS011;68206;59.956;30.234;2023-04-06T13:07:31;14.18;;;3.80;;
78854;SDS011;68206;59.956;30.234;2023-04-06T13:10:01;11.75;;;3.50;;
78854;SDS011;68206;59.956;30.234;2023-04-06T13:12:29;9.18;;;2.90;;
78854;SDS011;68206;59.956;30.234;2023-04-06T13:14:57;11.60;;;2.75;;
78854;SDS011;68206;59.956;30.234;2023-04-06T13:17:27;7.72;;;2.38;;
78854;SDS011;68206;59.956;30.234;2023-04-06T13:19:55;7.38;;;2.67;;
78854;SDS011;68206;59.956;30.234;2023-04-06T13:22:23;10.38;;;2.83;;
78854;SDS011;68206;59.956;30.234;2023-04-06T13:24:52;6.32;;;2.53;;
78854;SDS011;68206;59.956;30.234;2023-04-06T13:27:21;5.03;;;2.10;;
78854;SDS011;68206;59.956;30.234;2023-04-06T13:29:49;5.57;;;2.30;;
78854;SDS011;68206;59.956;30.234;2023-04-06T13:32:18;6.35;;;2.70;;
78854;SDS011;68206;59.956;30.234;2023-04-06T13:34:46;10.15;;;2.88;;
78854;SDS011;68206;59.956;30.234;2023-04-06T13:37:15;6.28;;;2.58;;
78854;SDS011;68206;59.956;30.234;2023-04-06T13:39:43;4.45;;;2.30;;
78854;SDS011;68206;59.956;30.234;2023-04-06T13:42:11;14.07;;;2.65;;
78854;SDS011;68206;59.956;30.234;2023-04-06T13:44:40;6.53;;;2.42;;
78854;SDS011;68206;59.956;30.234;2023-04-06T13:47:08;8.73;;;2.45;;
78854;SDS011;68206;59.956;30.234;2023-04-06T13:49:37;9.10;;;2.22;;
78854;SDS011;68206;59.956;30.234;2023-04-06T13:52:05;6.32;;;2.28;;
78854;SDS011;68206;59.956;30.234;2023-04-06T13:54:33;8.00;;;2.40;;
78854;SDS011;68206;59.956;30.234;2023-04-06T13:57:04;10.35;;;2.80;;
78854;SDS011;68206;59.956;30.234;2023-04-06T13:59:34;6.80;;;2.05;;
78854;SDS011;68206;59.956;30.234;2023-04-06T14:02:05;7.63;;;1.95;;
78854;SDS011;68206;59.956;30.234;2023-04-06T14:04:34;7.45;;;2.50;;
78854;SDS011;68206;59.956;30.234;2023-04-06T14:07:02;7.40;;;2.08;;
78854;SDS011;68206;59.956;30.234;2023-04-06T14:09:33;5.28;;;2.30;;
78854;SDS011;68206;59.956;30.234;2023-04-06T14:12:02;14.98;;;2.53;;
78854;SDS011;68206;59.956;30.234;2023-04-06T14:14:30;5.15;;;1.85;;
78854;SDS011;68206;59.956;30.234;2023-04-06T14:16:58;3.10;;;1.70;;
78854;SDS011;68206;59.956;30.234;2023-04-06T14:19:28;6.88;;;2.00;;
78854;SDS011;68206;59.956;30.234;2023-04-06T14:21:56;3.33;;;1.95;;
78854;SDS011;68206;59.956;30.234;2023-04-06T14:24:25;10.93;;;2.28;;
78854;SDS011;68206;59.956;30.234;2023-04-06T14:26:53;5.30;;;2.20;;
78854;SDS011;68206;59.956;30.234;2023-04-06T14:29:22;7.85;;;2.25;;
78854;SDS011;68206;59.956;30.234;2023-04-06T14:31:50;6.13;;;1.83;;
78854;SDS011;68206;59.956;30.234;2023-04-06T14:34:18;5.90;;;2.08;;
78854;SDS011;68206;59.956;30.234;2023-04-06T14:36:49;8.10;;;2.92;;
78854;SDS011;68206;59.956;30.234;2023-04-06T14:39:17;8.50;;;2.15;;
78854;SDS011;68206;59.956;30.234;2023-04-06T14:41:45;2.78;;;1.92;;
78854;SDS011;68206;59.956;30.234;2023-04-06T14:44:16;3.97;;;1.67;;
78854;SDS011;68206;59.956;30.234;2023-04-06T14:46:44;8.43;;;2.05;;
78854;SDS011;68206;59.956;30.234;2023-04-06T14:49:12;5.60;;;2.20;;
78854;SDS011;68206;59.956;30.234;2023-04-06T14:51:41;9.38;;;1.73;;
78854;SDS011;68206;59.956;30.234;2023-04-06T14:54:10;10.80;;;2.30;;
78854;SDS011;68206;59.956;30.234;2023-04-06T14:56:38;7.78;;;1.95;;
78854;SDS011;68206;59.956;30.234;2023-04-06T14:59:06;5.72;;;2.10;;
78854;SDS011;68206;59.956;30.234;2023-04-06T15:01:34;5.35;;;1.60;;
78854;SDS011;68206;59.956;30.234;2023-04-06T15:04:03;4.57;;;2.65;;
78854;SDS011;68206;59.956;30.234;2023-04-06T15:06:32;6.13;;;2.25;;
78854;SDS011;68206;59.956;30.234;2023-04-06T15:09:00;6.88;;;1.88;;
78854;SDS011;68206;59.956;30.234;2023-04-06T15:11:30;4.22;;;1.58;;
78854;SDS011;68206;59.956;30.234;2023-04-06T15:13:59;9.63;;;2.33;;
78854;SDS011;68206;59.956;30.234;2023-04-06T15:16:27;7.22;;;1.77;;
78854;SDS011;68206;59.956;30.234;2023-04-06T15:18:59;6.25;;;1.85;;
78854;SDS011;68206;59.956;30.234;2023-04-06T15:21:27;4.00;;;1.50;;
78854;SDS011;68206;59.956;30.234;2023-04-06T15:23:56;3.90;;;1.55;;
78854;SDS011;68206;59.956;30.234;2023-04-06T15:26:24;5.53;;;1.98;;
78854;SDS011;68206;59.956;30.234;2023-04-06T15:28:54;8.73;;;1.90;;
78854;SDS011;68206;59.956;30.234;2023-04-06T15:31:22;18.80;;;4.28;;
78854;SDS011;68206;59.956;30.234;2023-04-06T15:34:04;4.40;;;1.80;;
78854;SDS011;68206;59.956;30.234;2023-04-06T15:36:34;5.40;;;1.90;;
78854;SDS011;68206;59.956;30.234;2023-04-06T15:39:03;5.30;;;1.60;;
78854;SDS011;68206;59.956;30.234;2023-04-06T15:41:35;7.07;;;1.73;;